Time;durP1;ratioP1;P1;durP2;ratioP2;P2;SDS_P1;SDS_P2;PMS_P1;PMS_P2;Temp;Humidity;BMP_temperature;BMP_pressure;BME280_temperature;BME280_humidity;BME280_pressure;Samples;Min_cycle;Max_cycle;Signal;HPM_P1;HPM_P2
2024/03/03 00:00:59;;;;;;;10.23;9.02;;;;;;;7.57;100.00;100215.38;5065419;28;20021;-71
2024/03/03 00:03:25;;;;;;;19.45;9.27;;;;;;;7.51;100.00;100219.66;5065466;28;20131;-71
2024/03/03 00:05:50;;;;;;;12.27;9.27;;;;;;;7.52;100.00;100211.94;5047123;28;20086;-71
2024/03/03 00:08:16;;;;;;;29.05;14.95;;;;;;;7.55;100.00;100208.50;5047152;28;20031;-70
2024/03/03 00:10:41;;;;;;;24.08;12.70;;;;;;;7.53;100.00;100202.44;5047340;28;20036;-71
2024/03/03 00:13:07;;;;;;;37.72;9.48;;;;;;;7.55;100.00;100205.91;5065081;28;20031;-72
2024/03/03 00:15:32;;;;;;;30.52;12.63;;;;;;;7.55;100.00;100195.56;5065215;28;20469;-71
2024/03/03 00:17:58;;;;;;;20.77;12.32;;;;;;;7.52;100.00;100199.03;5046923;28;20130;-72
2024/03/03 00:20:23;;;;;;;20.63;9.30;;;;;;;7.61;100.00;100203.31;5065119;28;20036;-73
2024/03/03 00:22:48;;;;;;;11.18;7.03;;;;;;;7.62;100.00;100199.03;5047001;28;20021;-73
2024/03/03 00:25:14;;;;;;;13.88;10.27;;;;;;;7.57;100.00;100188.69;5064838;28;20032;-73
2024/03/03 00:27:39;;;;;;;31.40;12.82;;;;;;;7.54;100.00;100201.59;5047272;28;20025;-73
2024/03/03 00:30:05;;;;;;;26.73;12.52;;;;;;;7.52;100.00;100203.31;5065024;28;20445;-73
2024/03/03 00:32:31;;;;;;;20.02;13.30;;;;;;;7.56;100.00;100203.31;5047146;28;20020;-73
2024/03/03 00:34:56;;;;;;;33.22;9.68;;;;;;;7.60;100.00;100200.75;5064955;28;20025;-73
2024/03/03 00:37:22;;;;;;;30.40;15.50;;;;;;;7.54;100.00;100199.03;5064852;28;20016;-73
2024/03/03 00:39:47;;;;;;;21.50;12.57;;;;;;;7.58;100.00;100208.50;5065093;28;20027;-74
2024/03/03 00:42:12;;;;;;;32.30;14.93;;;;;;;7.59;100.00;100202.44;5065091;28;20024;-73
2024/03/03 00:44:38;;;;;;;31.83;12.35;;;;;;;7.60;100.00;100193.00;5064658;28;20056;-73
2024/03/03 00:47:03;;;;;;;35.17;15.65;;;;;;;7.78;100.00;100205.06;5064892;28;20043;-73
2024/03/03 00:49:29;;;;;;;18.63;9.85;;;;;;;7.61;100.00;100210.19;5064766;28;20025;-73
2024/03/03 00:51:54;;;;;;;17.88;12.55;;;;;;;7.53;100.00;100210.19;5046668;28;20035;-73
2024/03/03 00:54:19;;;;;;;8.65;7.85;;;;;;;7.56;100.00;100212.78;5064676;28;20032;-74
2024/03/03 00:56:45;;;;;;;8.98;6.82;;;;;;;7.65;100.00;100214.53;5064811;28;20032;-75
2024/03/03 00:59:10;;;;;;;32.50;15.32;;;;;;;7.52;100.00;100211.06;5046827;28;20028;-74
2024/03/03 01:01:35;;;;;;;35.15;13.52;;;;;;;7.56;100.00;100212.78;5046749;28;20056;-74
2024/03/03 01:04:01;;;;;;;25.50;10.73;;;;;;;7.63;100.00;100203.31;5064867;28;20040;-74
2024/03/03 01:06:26;;;;;;;29.98;10.40;;;;;;;7.50;100.00;100202.44;5064535;28;20032;-74
2024/03/03 01:08:51;;;;;;;27.33;15.73;;;;;;;7.55;100.00;100214.53;5064304;28;20474;-74
2024/03/03 01:11:17;;;;;;;20.45;11.25;;;;;;;7.56;100.00;100207.63;5064690;28;20017;-74
2024/03/03 01:13:42;;;;;;;21.23;6.47;;;;;;;7.52;100.00;100211.06;5064862;28;20028;-74
2024/03/03 01:16:08;;;;;;;7.65;5.82;;;;;;;7.54;100.00;100211.94;5046710;28;20033;-75
2024/03/03 01:18:33;;;;;;;29.92;14.25;;;;;;;7.56;100.00;100217.94;5066086;28;20036;-74
2024/03/03 01:20:58;;;;;;;25.67;13.70;;;;;;;7.52;100.00;100211.06;5066881;28;20028;-74
2024/03/03 01:23:24;;;;;;;10.10;6.22;;;;;;;7.73;100.00;100193.84;5065388;28;20029;-76
2024/03/03 01:25:49;;;;;;;35.60;8.98;;;;;;;7.62;100.00;100188.69;5065323;28;20057;-75
2024/03/03 01:28:15;;;;;;;32.03;14.23;;;;;;;7.50;100.00;100210.19;5064668;28;20096;-74
2024/03/03 01:30:40;;;;;;;24.80;4.95;;;;;;;7.55;100.00;100205.91;5065490;28;20031;-75
2024/03/03 01:33:06;;;;;;;43.05;15.30;;;;;;;7.49;100.00;100211.06;5068282;28;20033;-74
2024/03/03 01:35:31;;;;;;;22.65;13.85;;;;;;;7.49;100.00;100199.00;5068268;28;20059;-74
2024/03/03 01:37:57;;;;;;;13.70;5.85;;;;;;;7.52;100.00;100190.41;5067955;28;20021;-74
2024/03/03 01:40:22;;;;;;;24.58;14.18;;;;;;;7.49;100.00;100217.06;5050202;28;20017;-74
2024/03/03 01:42:48;;;;;;;27.58;12.43;;;;;;;7.42;100.00;100185.22;5068195;28;20033;-74
2024/03/03 01:45:22;;;;;;;16.02;6.95;;;;;;;7.51;100.00;100199.88;5067658;28;20049;-74
2024/03/03 01:47:52;;;;;;;22.05;13.30;;;;;;;7.53;100.00;100207.63;5067958;28;20043;-75
2024/03/03 01:50:18;;;;;;;28.60;12.70;;;;;;;7.45;100.00;100199.84;5067667;28;20025;-74
2024/03/03 01:52:46;;;;;;;27.80;8.82;;;;;;;7.50;100.00;100207.63;5067712;28;20029;-74
2024/03/03 01:55:13;;;;;;;6.78;5.05;;;;;;;7.48;100.00;100206.75;5067769;28;20025;-73
2024/03/03 01:57:39;;;;;;;17.45;10.48;;;;;;;7.45;100.00;100212.78;5067878;28;20024;-73
2024/03/03 02:00:09;;;;;;;31.95;15.82;;;;;;;7.43;100.00;100212.78;5067189;28;20084;-73
2024/03/03 02:02:38;;;;;;;26.65;13.25;;;;;;;7.47;100.00;100212.78;5048744;28;20035;-72
2024/03/03 02:05:04;;;;;;;30.38;15.30;;;;;;;7.48;100.00;100205.03;5049686;28;20025;-71
2024/03/03 02:07:30;;;;;;;26.85;14.25;;;;;;;7.42;100.00;100205.03;5067743;28;20078;-70
2024/03/03 02:09:56;;;;;;;33.13;11.77;;;;;;;7.39;100.00;100207.59;5067816;28;20384;-71
2024/03/03 02:12:25;;;;;;;13.57;6.70;;;;;;;7.40;100.00;100212.78;5049335;28;20029;-71
2024/03/03 02:14:51;;;;;;;10.02;6.68;;;;;;;7.42;100.00;100207.59;5067589;28;20028;-71
2024/03/03 02:17:17;;;;;;;18.50;7.38;;;;;;;7.45;100.00;100199.84;5067404;28;20029;-70
2024/03/03 02:19:42;;;;;;;24.67;14.30;;;;;;;7.43;100.00;100210.19;5067770;28;20025;-70
2024/03/03 02:22:07;;;;;;;30.23;12.68;;;;;;;7.41;100.00;100208.47;5067851;28;20549;-70
2024/03/03 02:24:33;;;;;;;23.58;12.43;;;;;;;7.43;100.00;100210.19;5067249;28;20029;-69
2024/03/03 02:26:59;;;;;;;35.47;13.00;;;;;;;7.47;100.00;100205.03;5049317;28;20481;-70
2024/03/03 02:29:25;;;;;;;33.03;13.60;;;;;;;7.44;100.00;100204.16;5067184;28;20032;-71
2024/03/03 02:31:50;;;;;;;16.17;9.23;;;;;;;7.53;100.00;100192.13;5067179;28;20021;-71
2024/03/03 02:34:16;;;;;;;27.00;13.80;;;;;;;7.53;100.00;100207.63;5066788;28;20162;-70
2024/03/03 02:36:41;;;;;;;21.05;8.75;;;;;;;7.50;100.00;100208.50;5067054;28;20032;-70
2024/03/03 02:39:06;;;;;;;30.20;15.32;;;;;;;7.49;100.00;100192.97;5066907;28;20027;-69
2024/03/03 02:41:32;;;;;;;40.65;17.35;;;;;;;7.52;100.00;100200.75;5066632;28;20036;-69
2024/03/03 02:43:57;;;;;;;28.15;11.30;;;;;;;7.49;100.00;100201.56;5066963;28;20021;-69
2024/03/03 02:46:22;;;;;;;31.48;15.57;;;;;;;7.50;100.00;100192.13;5066767;28;20554;-68
2024/03/03 02:48:48;;;;;;;25.08;13.05;;;;;;;7.51;100.00;100188.66;5067147;28;20059;-68
2024/03/03 02:51:14;;;;;;;36.58;17.52;;;;;;;7.57;100.00;100196.44;5048909;28;20504;-69
2024/03/03 02:53:39;;;;;;;31.50;14.13;;;;;;;7.57;100.00;100193.84;5066592;28;20033;-68
2024/03/03 02:56:07;;;;;;;30.23;12.75;;;;;;;7.55;100.00;100191.28;5066487;28;20021;-68
2024/03/03 02:58:33;;;;;;;21.00;9.75;;;;;;;7.56;100.00;100182.66;5066362;28;20029;-68
2024/03/03 03:00:58;;;;;;;27.60;12.88;;;;;;;7.55;100.00;100178.34;5048652;28;20017;-68
2024/03/03 03:03:24;;;;;;;24.55;15.27;;;;;;;7.56;100.00;100176.63;5066573;28;20016;-67
2024/03/03 03:05:49;;;;;;;30.90;13.43;;;;;;;7.56;100.00;100174.03;5066488;28;20078;-69
2024/03/03 03:08:15;;;;;;;31.30;19.08;;;;;;;7.61;100.00;100182.66;5048141;28;20048;-67
2024/03/03 03:10:40;;;;;;;26.15;14.75;;;;;;;7.61;100.00;100172.31;5066610;28;20029;-68
2024/03/03 03:13:07;;;;;;;20.65;11.45;;;;;;;7.61;100.00;100171.44;5066399;28;20035;-68
2024/03/03 03:15:35;;;;;;;12.63;8.13;;;;;;;7.65;100.00;100176.63;5066354;28;20021;-68
2024/03/03 03:18:03;;;;;;;31.38;14.65;;;;;;;7.64;100.00;100179.19;5066292;28;20021;-69
2024/03/03 03:20:29;;;;;;;25.73;10.98;;;;;;;7.60;100.00;100167.16;5066196;28;20035;-69
2024/03/03 03:22:54;;;;;;;28.67;15.35;;;;;;;7.60;100.00;100169.72;5066125;28;20523;-67
2024/03/03 03:25:20;;;;;;;35.80;14.15;;;;;;;7.62;100.00;100173.19;5048282;28;20465;-67
2024/03/03 03:27:45;;;;;;;16.75;11.68;;;;;;;7.63;100.00;100170.59;5066214;28;20028;-67
2024/03/03 03:30:11;;;;;;;23.95;9.35;;;;;;;7.62;100.00;100165.44;5065976;28;20047;-67
2024/03/03 03:32:36;;;;;;;23.80;11.82;;;;;;;7.63;100.00;100165.44;5066056;28;20052;-67
2024/03/03 03:35:03;;;;;;;27.00;13.55;;;;;;;7.64;100.00;100174.03;5047943;28;20029;-68
2024/03/03 03:37:29;;;;;;;23.77;13.02;;;;;;;7.66;100.00;100173.19;5065765;28;20048;-68
2024/03/03 03:39:54;;;;;;;27.48;12.50;;;;;;;7.67;100.00;100176.59;5065950;28;20032;-68
2024/03/03 03:42:20;;;;;;;26.55;14.88;;;;;;;7.69;100.00;100177.47;5048066;28;20032;-68
2024/03/03 03:44:45;;;;;;;20.75;12.88;;;;;;;7.69;100.00;100170.59;5065606;28;20045;-68
2024/03/03 03:47:10;;;;;;;27.60;15.15;;;;;;;7.71;100.00;100172.31;5066024;28;20020;-68
2024/03/03 03:49:36;;;;;;;35.50;13.75;;;;;;;7.72;100.00;100169.72;5065788;28;20017;-68
2024/03/03 03:52:04;;;;;;;17.85;8.90;;;;;;;7.74;100.00;100175.75;5065704;28;20169;-68
2024/03/03 03:54:30;;;;;;;30.02;14.15;;;;;;;7.71;100.00;100174.91;5064742;28;20021;-68
2024/03/03 03:56:57;;;;;;;19.75;10.90;;;;;;;7.74;100.00;100182.66;5065501;28;20037;-67
2024/03/03 03:59:23;;;;;;;11.98;9.70;;;;;;;7.72;100.00;100179.19;5065591;28;20036;-67
2024/03/03 04:01:48;;;;;;;25.33;13.18;;;;;;;7.72;100.00;100177.47;5065501;28;20433;-68
2024/03/03 04:04:14;;;;;;;28.65;14.55;;;;;;;7.74;100.00;100180.06;5065377;28;20052;-67
2024/03/03 04:06:39;;;;;;;29.13;15.32;;;;;;;7.73;100.00;100170.59;5065284;28;20021;-69
2024/03/03 04:09:04;;;;;;;25.90;10.82;;;;;;;7.66;100.00;100168.03;5065340;28;20048;-69
2024/03/03 04:11:30;;;;;;;13.68;8.90;;;;;;;7.73;100.00;100178.34;5065308;28;20025;-67
2024/03/03 04:13:55;;;;;;;30.25;14.00;;;;;;;7.69;100.00;100177.47;5065339;28;20028;-67
2024/03/03 04:16:20;;;;;;;18.00;10.50;;;;;;;7.65;100.00;100181.78;5047187;28;20027;-67
2024/03/03 04:18:46;;;;;;;20.25;12.20;;;;;;;7.66;100.00;100183.53;5065136;28;20024;-67
2024/03/03 04:21:12;;;;;;;22.75;11.88;;;;;;;7.62;100.00;100181.78;5065142;28;20025;-68
2024/03/03 04:23:38;;;;;;;20.40;12.73;;;;;;;7.63;100.00;100186.09;5065072;28;20036;-67
2024/03/03 04:26:05;;;;;;;30.67;14.27;;;;;;;7.59;100.00;100181.78;5064936;28;20025;-66
2024/03/03 04:28:30;;;;;;;24.50;13.73;;;;;;;7.57;100.00;100175.78;5065048;28;20029;-65
2024/03/03 04:30:55;;;;;;;27.40;12.45;;;;;;;7.58;100.00;100190.41;5064994;28;20017;-68
2024/03/03 04:33:21;;;;;;;17.55;8.20;;;;;;;7.49;100.00;100187.81;5065064;28;20025;-67
2024/03/03 04:35:46;;;;;;;9.10;6.57;;;;;;;7.51;99.79;100184.38;5047029;28;20119;-67
2024/03/03 04:38:11;;;;;;;29.90;15.18;;;;;;;7.50;99.70;100190.41;5046757;28;20029;-66
2024/03/03 04:40:37;;;;;;;20.50;9.43;;;;;;;7.45;100.00;100184.38;5047011;28;20060;-67
2024/03/03 04:43:03;;;;;;;24.70;13.90;;;;;;;7.35;99.91;100174.91;5046947;28;20041;-68
2024/03/03 04:45:29;;;;;;;20.85;11.95;;;;;;;7.43;100.00;100179.19;5046468;28;20060;-68
2024/03/03 04:47:54;;;;;;;22.17;11.23;;;;;;;7.41;99.69;100187.81;5046931;28;20306;-67
2024/03/03 04:50:19;;;;;;;20.70;12.23;;;;;;;7.33;99.89;100185.22;5064717;28;20039;-67
2024/03/03 04:52:45;;;;;;;25.45;13.13;;;;;;;7.35;99.90;100193.81;5064742;28;20090;-66
2024/03/03 04:55:11;;;;;;;15.10;9.10;;;;;;;7.37;100.00;100202.44;5046567;28;20443;-68
2024/03/03 04:57:37;;;;;;;26.88;10.10;;;;;;;7.39;99.84;100208.47;5064671;28;20406;-68
2024/03/03 05:00:08;;;;;;;11.95;5.57;;;;;;;7.46;98.74;100195.56;5064851;28;20025;-68
2024/03/03 05:02:34;;;;;;;21.17;12.00;;;;;;;7.37;99.21;100206.72;5064890;28;20020;-69
2024/03/03 05:04:59;;;;;;;26.77;11.40;;;;;;;7.30;99.41;100204.13;5066361;28;20258;-67
2024/03/03 05:07:25;;;;;;;13.30;9.00;;;;;;;7.35;99.67;100208.47;5068601;28;20025;-68
2024/03/03 05:09:51;;;;;;;24.60;13.15;;;;;;;7.32;99.42;100202.44;5068695;28;20467;-68
2024/03/03 05:12:16;;;;;;;24.02;13.32;;;;;;;7.28;99.64;100202.44;5068618;28;20052;-68
2024/03/03 05:14:41;;;;;;;21.90;10.45;;;;;;;7.33;99.19;100203.31;5068527;28;20032;-67
2024/03/03 05:17:06;;;;;;;23.10;13.70;;;;;;;7.34;99.34;100205.00;5068660;28;20088;-67
2024/03/03 05:19:32;;;;;;;22.48;13.13;;;;;;;7.30;99.30;100208.47;5068532;28;20021;-67
2024/03/03 05:21:57;;;;;;;37.88;11.15;;;;;;;7.34;99.39;100212.75;5050373;28;20025;-68
2024/03/03 05:24:23;;;;;;;19.92;11.60;;;;;;;7.31;99.21;100213.63;5067965;28;20052;-67
2024/03/03 05:26:50;;;;;;;25.70;15.27;;;;;;;7.35;99.42;100214.47;5067306;28;20028;-68
2024/03/03 05:29:16;;;;;;;26.25;12.45;;;;;;;7.33;99.64;100211.06;5067098;28;20027;-68
2024/03/03 05:31:43;;;;;;;23.73;12.63;;;;;;;7.41;99.94;100223.97;5068282;28;20105;-68
2024/03/03 05:34:12;;;;;;;20.17;11.55;;;;;;;7.40;99.69;100219.66;5068339;28;20031;-67
2024/03/03 05:36:41;;;;;;;27.60;13.52;;;;;;;7.42;99.21;100223.09;5068058;28;20029;-68
2024/03/03 05:39:07;;;;;;;24.50;12.88;;;;;;;7.41;99.17;100224.81;5050021;28;20361;-68
2024/03/03 05:41:33;;;;;;;24.23;15.10;;;;;;;7.41;99.49;100223.97;5068167;28;20047;-67
2024/03/03 05:43:59;;;;;;;28.73;13.00;;;;;;;7.38;99.17;100226.56;5068240;28;20017;-68
2024/03/03 05:46:24;;;;;;;27.88;12.88;;;;;;;7.39;99.44;100226.56;5067748;28;20045;-68
2024/03/03 05:48:49;;;;;;;27.27;13.70;;;;;;;7.32;99.35;100222.22;5068026;28;20029;-69
2024/03/03 05:51:16;;;;;;;23.00;12.80;;;;;;;7.41;99.38;100232.56;5067967;28;20032;-68
2024/03/03 05:53:41;;;;;;;24.35;12.15;;;;;;;7.42;99.28;100231.72;5067681;28;20044;-68
2024/03/03 05:56:06;;;;;;;21.98;13.23;;;;;;;7.42;99.33;100238.59;5068335;28;20025;-68
2024/03/03 05:58:32;;;;;;;23.50;13.07;;;;;;;7.42;99.00;100230.84;5068473;28;20029;-69
2024/03/03 06:00:57;;;;;;;14.23;9.65;;;;;;;7.45;98.94;100236.03;5066703;28;20025;-68
2024/03/03 06:03:23;;;;;;;19.42;11.43;;;;;;;7.49;98.55;100239.47;5066916;28;20024;-68
2024/03/03 06:05:48;;;;;;;18.35;10.50;;;;;;;7.42;98.46;100234.31;5049220;28;20092;-68
2024/03/03 06:08:16;;;;;;;17.27;11.93;;;;;;;7.39;98.52;100239.47;5067661;28;20028;-68
2024/03/03 06:10:41;;;;;;;32.58;15.02;;;;;;;7.42;98.67;100244.63;5067597;28;20377;-69
2024/03/03 06:13:07;;;;;;;27.58;12.75;;;;;;;7.42;98.87;100249.81;5067630;28;20027;-69
2024/03/03 06:15:32;;;;;;;7.03;4.30;;;;;;;7.40;98.38;100241.19;5067561;28;20025;-68
2024/03/03 06:17:57;;;;;;;16.73;10.57;;;;;;;7.39;98.39;100249.81;5066730;28;20044;-68
2024/03/03 06:20:23;;;;;;;15.25;10.48;;;;;;;7.40;98.48;100246.34;5067432;28;20021;-68
2024/03/03 06:22:48;;;;;;;24.25;7.38;;;;;;;7.44;98.16;100254.97;5067309;28;20609;-67
2024/03/03 06:25:14;;;;;;;16.73;9.30;;;;;;;7.47;96.84;100265.31;5067359;28;20027;-68
2024/03/03 06:27:39;;;;;;;7.82;5.07;;;;;;;7.41;97.39;100242.06;5067478;28;20055;-68
2024/03/03 06:30:08;;;;;;;17.58;10.70;;;;;;;7.39;97.28;100251.50;5067344;28;20051;-69
2024/03/03 06:32:33;;;;;;;16.58;5.72;;;;;;;7.40;96.77;100251.50;5067311;28;20025;-69
2024/03/03 06:34:58;;;;;;;17.38;8.32;;;;;;;7.39;96.21;100254.97;5067139;28;20032;-69
2024/03/03 06:37:24;;;;;;;16.40;10.13;;;;;;;7.27;96.88;100248.03;5067015;28;20024;-69
2024/03/03 06:39:50;;;;;;;13.73;5.78;;;;;;;7.32;96.71;100251.50;5048815;28;20059;-69
2024/03/03 06:42:16;;;;;;;9.40;7.70;;;;;;;7.31;96.78;100254.06;5067016;28;20465;-69
2024/03/03 06:44:42;;;;;;;10.60;8.07;;;;;;;7.37;95.79;100248.94;5066977;28;20051;-69
2024/03/03 06:47:07;;;;;;;20.13;10.30;;;;;;;7.30;95.30;100253.19;5066835;28;20029;-69
2024/03/03 06:49:33;;;;;;;24.20;12.52;;;;;;;7.31;94.07;100247.22;5066969;28;20113;-68
2024/03/03 06:51:58;;;;;;;6.10;3.92;;;;;;;7.24;95.47;100272.97;5066842;28;20029;-70
2024/03/03 06:54:23;;;;;;;2.00;1.90;;;;;;;7.21;95.58;100258.34;5066717;28;20021;-69
2024/03/03 06:56:49;;;;;;;19.35;10.93;;;;;;;7.19;95.17;100265.22;5066711;28;20401;-68
2024/03/03 06:59:14;;;;;;;11.32;6.80;;;;;;;7.17;96.02;100267.78;5066674;28;20071;-68
2024/03/03 07:01:40;;;;;;;18.83;10.52;;;;;;;7.17;95.60;100260.06;5066846;28;20021;-68
2024/03/03 07:04:23;;;;;;;4.18;3.50;;;;;;;7.20;95.54;100261.81;5066816;28;20028;-70
2024/03/03 07:06:50;;;;;;;14.82;9.55;;;;;;;7.22;93.90;100270.38;5047209;28;20021;-69
2024/03/03 07:09:18;;;;;;;16.55;8.52;;;;;;;7.14;94.87;100277.28;5065032;28;20017;-69
2024/03/03 07:11:43;;;;;;;12.85;9.15;;;;;;;7.09;95.15;100268.63;5066156;28;20047;-70
2024/03/03 07:14:08;;;;;;;25.08;10.52;;;;;;;7.17;95.20;100280.69;5066574;28;20021;-70
2024/03/03 07:16:34;;;;;;;14.38;8.70;;;;;;;7.13;95.12;100276.41;5066217;28;20104;-69
2024/03/03 07:18:59;;;;;;;16.40;10.40;;;;;;;7.10;95.56;100267.78;5066418;28;20457;-70
2024/03/03 07:21:25;;;;;;;13.35;10.15;;;;;;;7.15;95.21;100276.41;5066404;28;20021;-69
2024/03/03 07:23:50;;;;;;;4.88;3.28;;;;;;;7.10;95.13;100266.06;5066066;28;20051;-68
2024/03/03 07:26:15;;;;;;;17.70;7.47;;;;;;;7.30;92.61;100273.03;5066050;28;20542;-69
2024/03/03 07:28:41;;;;;;;29.30;7.88;;;;;;;7.15;92.48;100273.81;5065101;28;20103;-69
2024/03/03 07:31:06;;;;;;;11.98;8.02;;;;;;;7.01;93.69;100278.94;5066061;28;20080;-69
2024/03/03 07:33:31;;;;;;;18.55;8.40;;;;;;;6.97;93.75;100269.44;5047987;28;20036;-69
2024/03/03 07:35:57;;;;;;;10.00;4.53;;;;;;;6.97;93.69;100269.44;5066063;28;20465;-69
2024/03/03 07:38:22;;;;;;;3.40;2.85;;;;;;;7.02;93.44;100272.91;5048007;28;20044;-69
2024/03/03 07:40:48;;;;;;;18.50;8.35;;;;;;;6.98;93.44;100292.66;5047998;28;20075;-69
2024/03/03 07:43:14;;;;;;;4.25;3.20;;;;;;;7.05;92.20;100254.84;5065782;28;20029;-71
2024/03/03 07:45:39;;;;;;;4.80;3.70;;;;;;;6.97;92.36;100280.63;5065702;28;20132;-71
2024/03/03 07:48:06;;;;;;;14.70;8.93;;;;;;;6.89;92.82;100283.19;5065745;28;20107;-70
2024/03/03 07:50:41;;;;;;;9.00;6.18;;;;;;;6.88;92.92;100281.47;5082470;28;20418;-67
2024/03/03 07:53:06;;;;;;;20.05;11.45;;;;;;;6.91;92.74;100286.66;5081010;28;20124;-66
2024/03/03 07:55:31;;;;;;;16.38;8.27;;;;;;;6.88;93.23;100285.75;5081029;28;20078;-67
2024/03/03 07:57:57;;;;;;;12.63;6.10;;;;;;;6.92;92.78;100280.63;5082342;28;20028;-65
2024/03/03 08:00:22;;;;;;;3.40;2.90;;;;;;;6.96;92.53;100288.38;5097661;28;20118;-66
2024/03/03 08:02:48;;;;;;;12.65;9.13;;;;;;;6.88;92.20;100276.31;5082172;28;20072;-66
2024/03/03 08:05:13;;;;;;;9.32;6.45;;;;;;;6.89;92.11;100278.03;5082007;28;20020;-65
2024/03/03 08:07:38;;;;;;;12.43;6.15;;;;;;;6.94;91.71;100268.59;5080246;28;20020;-65
2024/03/03 08:10:05;;;;;;;15.95;9.93;;;;;;;6.86;92.35;100283.16;5082003;28;20081;-65
2024/03/03 08:12:31;;;;;;;7.10;4.05;;;;;;;6.96;91.41;100270.31;5082089;28;20506;-65
2024/03/03 08:14:56;;;;;;;13.05;8.48;;;;;;;6.87;91.81;100269.41;5082029;28;20044;-66
2024/03/03 08:17:21;;;;;;;17.70;8.75;;;;;;;6.89;91.49;100272.84;5081953;28;20404;-65
2024/03/03 08:19:47;;;;;;;9.23;7.50;;;;;;;6.87;91.59;100269.41;5081964;28;20016;-66
2024/03/03 08:22:12;;;;;;;9.15;5.35;;;;;;;6.89;91.73;100275.44;5081643;28;20024;-65
2024/03/03 08:24:40;;;;;;;15.88;9.80;;;;;;;6.94;91.45;100276.34;5081536;28;20506;-65
2024/03/03 08:27:05;;;;;;;9.45;6.45;;;;;;;6.96;91.07;100278.03;5081473;28;20026;-65
2024/03/03 08:29:30;;;;;;;14.13;7.15;;;;;;;7.00;90.67;100279.78;5081431;28;20067;-65
2024/03/03 08:31:56;;;;;;;14.45;8.73;;;;;;;6.94;90.68;100281.50;5081526;28;20028;-65
2024/03/03 08:34:21;;;;;;;24.42;9.27;;;;;;;6.92;90.71;100283.19;5081735;28;20123;-66
2024/03/03 08:36:46;;;;;;;13.70;7.85;;;;;;;6.98;90.96;100282.34;5081577;28;20043;-67
2024/03/03 08:39:12;;;;;;;10.40;8.10;;;;;;;6.92;91.13;100292.66;5081369;28;20019;-66
2024/03/03 08:41:41;;;;;;;3.13;2.85;;;;;;;6.91;91.15;100284.06;5081298;28;20021;-67
2024/03/03 08:44:07;;;;;;;5.60;4.32;;;;;;;7.07;90.14;100292.75;5081332;28;20100;-65
2024/03/03 08:46:32;;;;;;;21.10;8.15;;;;;;;6.97;90.19;100284.91;5079881;28;20033;-65
2024/03/03 08:48:58;;;;;;;10.38;8.13;;;;;;;6.91;90.77;100286.66;5081036;28;20051;-66
2024/03/03 08:51:23;;;;;;;3.15;2.85;;;;;;;7.00;90.37;100292.69;5080988;28;20024;-65
2024/03/03 08:53:48;;;;;;;4.75;3.22;;;;;;;6.96;90.43;100296.13;5080970;28;20038;-66
2024/03/03 08:56:14;;;;;;;13.65;8.55;;;;;;;6.84;90.69;100290.03;5081183;28;20021;-67
2024/03/03 08:58:39;;;;;;;15.35;10.23;;;;;;;6.82;90.86;100290.03;5081021;28;20508;-66
2024/03/03 09:01:05;;;;;;;3.67;2.53;;;;;;;6.90;91.09;100274.56;5071362;28;20017;-66
2024/03/03 09:03:31;;;;;;;10.27;8.50;;;;;;;6.86;90.73;100295.19;5066216;28;20031;-66
2024/03/03 09:05:57;;;;;;;10.70;6.40;;;;;;;6.85;91.15;100294.34;5067457;28;20032;-66
2024/03/03 09:08:22;;;;;;;11.35;8.45;;;;;;;6.91;90.92;100302.13;5067249;28;20048;-66
2024/03/03 09:10:48;;;;;;;9.85;5.28;;;;;;;6.89;91.40;100290.94;5067482;28;20031;-66
2024/03/03 09:13:14;;;;;;;9.30;6.63;;;;;;;6.87;90.47;100292.63;5067363;28;20036;-66
2024/03/03 09:15:39;;;;;;;3.90;3.50;;;;;;;7.08;89.18;100291.00;5067191;28;20025;-66
2024/03/03 09:18:05;;;;;;;14.93;7.78;;;;;;;6.99;89.68;100301.28;5067380;28;20047;-66
2024/03/03 09:20:30;;;;;;;2.85;2.58;;;;;;;7.00;89.57;100296.13;5067421;28;20079;-66
2024/03/03 09:22:56;;;;;;;10.68;6.32;;;;;;;6.99;89.10;100290.97;5067045;28;20370;-67
2024/03/03 09:25:22;;;;;;;6.82;4.85;;;;;;;6.87;90.69;100292.63;5067141;28;20092;-66
2024/03/03 09:27:47;;;;;;;11.73;5.72;;;;;;;6.68;91.17;100271.91;5067071;28;20029;-66
2024/03/03 09:30:13;;;;;;;22.02;8.40;;;;;;;6.91;90.94;100298.69;5067042;28;20024;-67
2024/03/03 09:32:38;;;;;;;4.65;3.67;;;;;;;6.89;91.96;100296.09;5065694;28;20033;-66
2024/03/03 09:35:06;;;;;;;11.45;7.05;;;;;;;7.01;90.78;100307.34;5066926;28;20032;-66
2024/03/03 09:37:31;;;;;;;6.95;4.68;;;;;;;6.94;91.45;100307.31;5067028;28;20020;-66
2024/03/03 09:39:57;;;;;;;11.60;6.70;;;;;;;7.08;90.32;100301.31;5066656;28;20048;-64
2024/03/03 09:42:23;;;;;;;7.18;4.43;;;;;;;7.16;89.84;100304.81;5065408;28;20021;-64
2024/03/03 09:44:51;;;;;;;13.00;6.60;;;;;;;7.10;89.87;100306.50;5066938;28;20032;-65
2024/03/03 09:47:18;;;;;;;5.90;2.90;;;;;;;6.97;90.60;100300.41;5065456;28;20396;-64
2024/03/03 09:49:44;;;;;;;21.13;9.48;;;;;;;6.99;91.33;100309.03;5066427;28;20048;-66
2024/03/03 09:52:15;;;;;;;2.55;2.00;;;;;;;7.22;90.90;100310.88;5066936;28;20039;-67
2024/03/03 09:54:41;;;;;;;13.35;6.25;;;;;;;7.15;89.84;100305.69;5066664;28;20021;-66
2024/03/03 09:57:13;;;;;;;5.40;4.88;;;;;;;7.17;90.04;100297.94;5066629;28;20047;-66
2024/03/03 09:59:39;;;;;;;13.38;4.15;;;;;;;7.16;90.45;100309.97;5066780;28;20025;-66
2024/03/03 10:02:11;;;;;;;12.98;7.25;;;;;;;7.05;90.44;100315.09;5066463;28;20029;-65
2024/03/03 10:04:39;;;;;;;9.55;6.55;;;;;;;7.09;91.07;100315.97;5066574;28;20029;-67
2024/03/03 10:07:07;;;;;;;24.55;8.52;;;;;;;7.15;90.94;100313.44;5066379;28;20025;-66
2024/03/03 10:09:34;;;;;;;4.97;4.47;;;;;;;7.20;90.63;100303.13;5066227;28;20021;-66
2024/03/03 10:12:01;;;;;;;6.32;4.55;;;;;;;7.24;90.96;100314.28;5065606;28;20097;-68
2024/03/03 10:14:28;;;;;;;7.25;3.47;;;;;;;7.44;88.82;100302.31;5066033;28;20020;-66
2024/03/03 10:16:53;;;;;;;6.18;5.57;;;;;;;7.30;90.09;100320.34;5066436;28;20055;-66
2024/03/03 10:19:18;;;;;;;9.57;7.40;;;;;;;7.26;90.15;100307.44;5066176;28;20017;-66
2024/03/03 10:21:47;;;;;;;9.77;6.30;;;;;;;7.29;90.66;100308.31;5066003;28;20032;-66
2024/03/03 10:24:26;;;;;;;13.57;8.63;;;;;;;7.27;90.40;100310.00;5065817;28;20032;-65
2024/03/03 10:26:53;;;;;;;9.10;6.97;;;;;;;7.28;89.97;100316.91;5064556;28;20086;-66
2024/03/03 10:29:21;;;;;;;9.30;7.00;;;;;;;7.32;89.87;100317.78;5065805;28;20025;-66
2024/03/03 10:31:47;;;;;;;8.23;5.32;;;;;;;7.28;90.51;100319.50;5065867;28;20025;-66
2024/03/03 10:34:14;;;;;;;7.10;3.03;;;;;;;7.33;90.67;100324.69;5065861;28;20080;-66
2024/03/03 10:36:40;;;;;;;13.32;8.73;;;;;;;7.28;90.35;100324.66;5065818;28;20025;-66
2024/03/03 10:39:08;;;;;;;10.25;7.40;;;;;;;7.35;90.14;100322.94;5065751;28;20045;-67
2024/03/03 10:41:33;;;;;;;13.35;6.50;;;;;;;7.33;90.49;100322.09;5064659;28;20104;-66
2024/03/03 10:44:01;;;;;;;16.58;7.22;;;;;;;7.37;90.19;100331.56;5064429;28;20554;-66
2024/03/03 10:46:27;;;;;;;8.38;5.57;;;;;;;7.35;90.33;100325.53;5065574;28;20121;-67
2024/03/03 10:48:55;;;;;;;7.28;5.05;;;;;;;7.38;89.93;100329.88;5065579;28;20045;-66
2024/03/03 10:51:20;;;;;;;9.38;6.25;;;;;;;7.31;90.23;100311.75;5065656;28;20170;-66
2024/03/03 10:53:51;;;;;;;9.95;6.55;;;;;;;7.33;90.36;100322.09;5065504;28;20048;-66
2024/03/03 10:56:17;;;;;;;14.95;5.57;;;;;;;7.36;90.80;100314.38;5065628;28;20029;-66
2024/03/03 10:58:45;;;;;;;8.82;3.33;;;;;;;7.38;90.72;100309.19;5065450;28;20021;-69
2024/03/03 11:01:11;;;;;;;7.30;5.05;;;;;;;7.40;90.49;100305.75;5065384;28;20032;-65
2024/03/03 11:03:37;;;;;;;11.68;7.53;;;;;;;7.46;90.52;100319.56;5065428;28;20024;-66
2024/03/03 11:06:06;;;;;;;10.80;6.30;;;;;;;7.41;90.31;100311.78;5065325;28;20047;-67
2024/03/03 11:08:32;;;;;;;4.25;3.85;;;;;;;7.52;89.68;100304.94;5065129;28;20028;-65
2024/03/03 11:11:07;;;;;;;6.40;2.67;;;;;;;7.51;89.22;100308.38;5065241;28;20358;-66
2024/03/03 11:13:40;;;;;;;12.82;6.40;;;;;;;7.39;89.78;100322.13;5065234;28;20496;-67